Time;durP1;ratioP1;P1;durP2;ratioP2;P2;SDS_P1;SDS_P2;PMS_P1;PMS_P2;Temp;Humidity;BMP_temperature;BMP_pressure;BME280_temperature;BME280_humidity;BME280_pressure;Samples;Min_cycle;Max_cycle;Signal;HPM_P1;HPM_P2
2022/05/03 00:01:49;;;;;;;0.40;0.25;;;13.90;52.60;;;;;;5130434;27;20386;-69
2022/05/03 00:10:08;;;;;;;0.32;0.20;;;13.80;52.60;;;;;;5109653;27;20389;-66
2022/05/03 00:15:23;;;;;;;0.68;0.32;;;13.80;52.60;;;;;;5130392;27;20295;-70
2022/05/03 00:17:51;;;;;;;0.63;0.20;;;13.80;52.60;;;;;;5129170;28;20040;-69
2022/05/03 00:20:17;;;;;;;0.90;0.20;;;13.70;52.50;;;;;;5129194;28;20046;-70
2022/05/03 00:22:44;;;;;;;0.88;0.28;;;13.80;52.60;;;;;;5128848;28;20074;-70
2022/05/03 00:25:10;;;;;;;0.47;0.20;;;13.70;52.60;;;;;;5128794;28;20050;-69
2022/05/03 00:27:36;;;;;;;0.43;0.30;;;13.70;52.60;;;;;;5128775;28;20553;-70
2022/05/03 00:30:04;;;;;;;1.05;0.30;;;13.70;52.60;;;;;;5129262;28;20118;-70
2022/05/03 00:32:34;;;;;;;0.50;0.30;;;13.70;52.60;;;;;;5130016;27;20071;-70
2022/05/03 00:35:04;;;;;;;0.85;0.28;;;13.70;52.60;;;;;;5128610;28;20043;-70
2022/05/03 00:37:30;;;;;;;1.27;0.20;;;13.70;52.60;;;;;;5129969;27;20498;-69
2022/05/03 00:39:55;;;;;;;0.68;0.20;;;13.70;52.70;;;;;;5128539;28;20039;-70
2022/05/03 00:42:26;;;;;;;0.73;0.30;;;13.70;52.60;;;;;;5128465;28;20062;-70
2022/05/03 00:47:57;;;;;;;0.70;0.35;;;13.60;52.70;;;;;;5149177;27;1272513;-64
2022/05/03 00:50:45;;;;;;;0.98;0.35;;;13.50;52.60;;;;;;5153518;27;20054;-69
2022/05/03 01:01:55;;;;;;;0.60;0.20;;;13.60;52.80;;;;;;5107635;27;1273349;-65
2022/05/03 01:07:27;;;;;;;0.50;0.28;;;13.60;52.80;;;;;;5130354;27;20391;-70
2022/05/03 01:12:55;;;;;;;1.27;0.30;;;13.50;52.80;;;;;;5149161;27;1272051;-69
2022/05/03 01:15:29;;;;;;;0.55;0.28;;;13.50;52.80;;;;;;5153023;27;20046;-63
2022/05/03 01:21:14;;;;;;;1.08;0.40;;;13.50;52.80;;;;;;5130251;27;20511;-69
2022/05/03 01:26:37;;;;;;;0.55;0.30;;;13.50;52.80;;;;;;5148983;27;1281642;-70
2022/05/03 01:31:47;;;;;;;0.80;0.38;;;13.40;52.80;;;;;;5130358;27;20382;-68
2022/05/03 01:34:17;;;;;;;0.63;0.30;;;13.40;52.80;;;;;;5128922;28;20095;-68
2022/05/03 01:40:13;;;;;;;0.60;0.35;;;13.40;52.80;;;;;;5109901;27;20891;-63
2022/05/03 02:00:12;;;;;;;1.20;0.40;;;13.30;52.80;;;;;;5130379;27;20386;-69
2022/05/03 02:08:21;;;;;;;0.60;0.30;;;13.30;52.90;;;;;;5130310;27;20852;-69
2022/05/03 02:16:09;;;;;;;0.60;0.30;;;13.30;52.80;;;;;;5130171;27;20349;-64
2022/05/03 02:18:50;;;;;;;1.95;0.30;;;13.30;52.80;;;;;;5129161;28;20067;-70
2022/05/03 02:21:21;;;;;;;0.60;0.30;;;13.30;52.80;;;;;;5129172;28;20049;-69
2022/05/03 02:26:36;;;;;;;0.50;0.30;;;13.20;52.80;;;;;;5089394;28;20414;-69
2022/05/03 02:29:10;;;;;;;1.65;0.45;;;13.20;52.70;;;;;;5088068;28;20052;-69
2022/05/03 02:32:02;;;;;;;1.05;0.50;;;13.20;52.70;;;;;;5088079;28;20115;-69
2022/05/03 02:37:22;;;;;;;0.95;0.40;;;13.20;52.80;;;;;;5130149;27;20950;-69
2022/05/03 02:40:04;;;;;;;0.57;0.38;;;13.20;52.70;;;;;;5129052;28;20043;-68
2022/05/03 02:42:31;;;;;;;0.73;0.40;;;13.20;52.80;;;;;;5128944;28;20051;-69
2022/05/03 02:45:00;;;;;;;0.60;0.40;;;13.20;52.80;;;;;;5128990;27;20043;-69
2022/05/03 02:50:41;;;;;;;0.90;0.38;;;13.10;52.70;;;;;;5089440;27;20414;-69
2022/05/03 02:53:09;;;;;;;1.27;0.33;;;13.10;52.80;;;;;;5088374;28;20044;-69
2022/05/03 02:55:50;;;;;;;0.95;0.40;;;13.10;52.80;;;;;;5088383;28;20278;-70
2022/05/03 03:04:03;;;;;;;0.82;0.38;;;13.10;52.80;;;;;;5130490;27;20353;-64
2022/05/03 03:06:33;;;;;;;0.80;0.30;;;13.10;52.90;;;;;;5128986;28;20054;-63
2022/05/03 03:09:00;;;;;;;0.60;0.30;;;13.10;52.80;;;;;;5129153;28;20070;-68
2022/05/03 03:14:29;;;;;;;0.82;0.43;;;13.10;52.80;;;;;;5130289;27;20398;-69
2022/05/03 03:17:03;;;;;;;0.98;0.40;;;13.10;52.80;;;;;;5128759;28;20134;-69
2022/05/03 03:22:46;;;;;;;1.48;0.40;;;13.10;52.80;;;;;;5130191;27;20350;-64
2022/05/03 03:25:17;;;;;;;2.35;0.45;;;13.10;52.70;;;;;;5129175;28;20040;-69
2022/05/03 03:27:45;;;;;;;0.77;0.32;;;13.00;52.70;;;;;;5129329;27;20035;-69
2022/05/03 03:30:13;;;;;;;0.63;0.30;;;13.00;52.70;;;;;;5129123;28;20085;-69
2022/05/03 03:32:42;;;;;;;1.48;0.50;;;13.00;52.70;;;;;;5128858;28;20471;-69
2022/05/03 03:35:08;;;;;;;0.80;0.40;;;13.00;52.70;;;;;;5128694;28;20046;-69
2022/05/03 03:37:34;;;;;;;1.00;0.35;;;13.00;52.70;;;;;;5146245;27;20042;-69
2022/05/03 03:40:02;;;;;;;0.80;0.30;;;13.00;52.80;;;;;;5145790;27;20122;-70
2022/05/03 03:42:29;;;;;;;0.60;0.30;;;13.00;52.80;;;;;;5129823;27;20110;-69
2022/05/03 03:45:08;;;;;;;0.82;0.40;;;13.00;52.80;;;;;;5128859;28;20394;-63
2022/05/03 03:47:35;;;;;;;0.60;0.30;;;12.90;52.70;;;;;;5146006;27;20040;-63
2022/05/03 03:50:02;;;;;;;0.73;0.22;;;13.00;52.70;;;;;;5129872;27;20042;-73
2022/05/03 03:52:30;;;;;;;1.83;0.45;;;13.00;52.70;;;;;;5128467;28;20050;-66
2022/05/03 03:54:57;;;;;;;1.23;0.30;;;12.90;52.70;;;;;;5146164;27;20091;-64
2022/05/03 03:57:24;;;;;;;0.63;0.30;;;12.90;52.70;;;;;;5128327;28;20501;-71
2022/05/03 03:59:50;;;;;;;4.60;0.50;;;12.90;52.80;;;;;;5128471;28;20066;-71
2022/05/03 04:02:17;;;;;;;1.20;0.40;;;12.90;52.70;;;;;;5128204;28;20054;-68
2022/05/03 04:04:44;;;;;;;1.95;0.50;;;12.90;52.70;;;;;;5128261;28;20040;-71
2022/05/03 04:07:10;;;;;;;1.25;0.38;;;12.90;52.70;;;;;;5128194;28;20482;-64
2022/05/03 04:09:35;;;;;;;1.45;0.35;;;12.90;52.70;;;;;;5128081;28;20114;-71
2022/05/03 04:12:03;;;;;;;1.10;0.40;;;12.90;52.70;;;;;;5129302;28;20126;-66
2022/05/03 04:14:30;;;;;;;1.13;0.35;;;12.90;52.70;;;;;;5128216;28;20046;-71
2022/05/03 04:16:57;;;;;;;0.80;0.32;;;12.90;52.70;;;;;;5129269;27;20035;-70
2022/05/03 04:19:23;;;;;;;0.60;0.40;;;12.90;52.70;;;;;;5128152;28;20127;-70
2022/05/03 04:21:50;;;;;;;0.55;0.30;;;12.90;52.60;;;;;;5127642;27;20060;-65
2022/05/03 04:24:16;;;;;;;0.80;0.60;;;12.80;52.60;;;;;;5127806;28;20035;-73
2022/05/03 04:26:43;;;;;;;0.50;0.40;;;12.90;52.60;;;;;;5127669;28;20112;-71
2022/05/03 04:29:09;;;;;;;0.68;0.40;;;12.80;52.50;;;;;;5127809;28;20040;-65
2022/05/03 04:31:38;;;;;;;1.42;0.50;;;12.80;52.60;;;;;;5127670;28;20118;-69
2022/05/03 04:34:04;;;;;;;0.70;0.30;;;12.80;52.50;;;;;;5097396;28;20126;-71
2022/05/03 04:36:32;;;;;;;0.80;0.40;;;12.80;52.50;;;;;;5114133;28;20067;-70
2022/05/03 04:39:00;;;;;;;1.02;0.40;;;12.80;52.50;;;;;;5115245;28;20047;-70
2022/05/03 04:41:26;;;;;;;2.35;0.50;;;12.80;52.50;;;;;;5114951;28;20390;-71
2022/05/03 04:43:52;;;;;;;1.17;0.30;;;12.80;52.50;;;;;;5113862;28;20491;-70
2022/05/03 04:46:19;;;;;;;1.20;0.32;;;12.80;52.50;;;;;;5114875;28;20071;-71
2022/05/03 04:48:44;;;;;;;1.10;0.38;;;12.80;52.50;;;;;;5113792;28;20088;-71
2022/05/03 04:51:25;;;;;;;0.70;0.30;;;12.80;52.50;;;;;;5115004;27;20039;-71
2022/05/03 04:53:52;;;;;;;1.13;0.60;;;12.80;52.50;;;;;;5115420;28;20036;-71
2022/05/03 04:56:19;;;;;;;1.15;0.52;;;12.80;52.50;;;;;;5113759;28;20044;-71
2022/05/03 04:58:49;;;;;;;0.95;0.40;;;12.80;52.50;;;;;;5114815;28;20600;-71
2022/05/03 05:01:15;;;;;;;1.00;0.38;;;12.80;52.50;;;;;;5130770;27;20044;-71
2022/05/03 05:03:42;;;;;;;0.77;0.32;;;12.80;52.50;;;;;;5114823;28;20027;-71
2022/05/03 05:06:09;;;;;;;1.40;0.68;;;12.80;52.50;;;;;;5113639;28;20050;-66
2022/05/03 05:08:36;;;;;;;1.23;0.35;;;12.80;52.50;;;;;;5114626;27;20602;-69
2022/05/03 05:11:02;;;;;;;0.75;0.25;;;12.80;52.50;;;;;;5113614;28;20044;-65
2022/05/03 05:13:28;;;;;;;0.63;0.30;;;12.80;52.50;;;;;;5113535;28;20394;-64
2022/05/03 05:15:55;;;;;;;0.50;0.30;;;12.80;52.50;;;;;;5113212;28;20483;-69
2022/05/03 05:18:20;;;;;;;1.85;0.50;;;12.80;52.50;;;;;;5114299;27;20112;-68
2022/05/03 05:20:46;;;;;;;0.90;0.50;;;12.80;52.50;;;;;;5114023;28;20515;-66
2022/05/03 05:23:11;;;;;;;1.55;0.65;;;12.80;52.50;;;;;;5112931;28;20483;-69
2022/05/03 05:25:40;;;;;;;1.05;0.50;;;12.80;52.50;;;;;;5113111;28;20035;-70
2022/05/03 05:28:05;;;;;;;1.25;0.50;;;12.80;52.50;;;;;;5112989;28;20100;-68
2022/05/03 05:30:31;;;;;;;2.10;1.00;;;12.80;52.60;;;;;;5096018;28;20039;-71
2022/05/03 05:32:57;;;;;;;1.23;0.40;;;12.80;52.60;;;;;;5112962;28;20039;-64
2022/05/03 05:35:23;;;;;;;1.52;0.73;;;12.80;52.60;;;;;;5113132;28;20040;-69
2022/05/03 05:37:48;;;;;;;2.03;0.55;;;12.80;52.60;;;;;;5112736;28;20043;-71
2022/05/03 05:40:14;;;;;;;0.80;0.57;;;12.80;52.60;;;;;;5113151;28;20043;-65
2022/05/03 05:42:40;;;;;;;1.23;0.98;;;12.80;52.70;;;;;;5112614;28;20047;-69
2022/05/03 05:45:06;;;;;;;1.48;0.40;;;12.80;52.70;;;;;;5129043;27;20042;-70
2022/05/03 05:47:35;;;;;;;1.25;0.57;;;12.80;52.70;;;;;;5112759;28;20390;-65
2022/05/03 05:50:03;;;;;;;0.90;0.50;;;12.80;52.80;;;;;;5096016;28;20040;-70
2022/05/03 05:55:14;;;;;;;1.98;0.63;;;12.90;52.70;;;;;;5113619;28;20047;-66
2022/05/03 05:57:40;;;;;;;1.45;0.95;;;12.90;52.70;;;;;;5112564;28;20099;-65
2022/05/03 06:00:06;;;;;;;1.67;0.80;;;12.90;52.70;;;;;;5112463;28;20043;-66
2022/05/03 06:02:35;;;;;;;1.08;0.70;;;12.90;52.70;;;;;;5112268;28;20433;-65
2022/05/03 06:05:01;;;;;;;1.95;0.85;;;12.90;52.70;;;;;;5112203;28;20043;-65
2022/05/03 06:07:26;;;;;;;1.75;0.98;;;12.90;52.60;;;;;;5113361;28;20037;-70
2022/05/03 06:09:52;;;;;;;1.63;0.82;;;13.00;52.70;;;;;;5112219;28;20475;-70
2022/05/03 06:12:18;;;;;;;0.98;0.80;;;12.90;52.60;;;;;;5112088;28;20046;-69
2022/05/03 06:14:43;;;;;;;1.67;1.05;;;13.00;52.70;;;;;;5129344;27;20127;-69
2022/05/03 06:17:09;;;;;;;1.63;0.90;;;13.00;52.60;;;;;;5113197;28;20043;-70
2022/05/03 06:19:34;;;;;;;1.55;1.13;;;13.00;52.60;;;;;;5113177;28;20031;-70
2022/05/03 06:22:00;;;;;;;2.47;1.23;;;13.00;52.50;;;;;;5111563;28;20056;-68
2022/05/03 06:24:26;;;;;;;1.65;0.90;;;13.10;52.60;;;;;;5129108;27;20395;-70
2022/05/03 06:26:51;;;;;;;1.90;1.67;;;13.10;52.60;;;;;;5113234;28;20481;-65
2022/05/03 06:29:17;;;;;;;3.35;2.20;;;13.10;52.40;;;;;;5111696;28;20043;-65
2022/05/03 06:31:42;;;;;;;3.30;1.50;;;13.20;52.40;;;;;;5111988;28;20078;-69
2022/05/03 06:34:08;;;;;;;2.17;1.98;;;13.20;52.30;;;;;;5111518;28;20119;-65
2022/05/03 06:36:36;;;;;;;2.28;1.85;;;13.30;52.30;;;;;;5111950;28;20122;-70
2022/05/03 06:39:03;;;;;;;2.75;1.88;;;13.30;52.20;;;;;;5111464;28;20042;-65
2022/05/03 06:41:30;;;;;;;1.83;1.55;;;13.30;52.10;;;;;;5112913;28;20468;-70
2022/05/03 06:43:58;;;;;;;3.28;1.48;;;13.40;52.00;;;;;;5111714;28;20049;-70
2022/05/03 06:46:24;;;;;;;2.63;1.48;;;13.50;52.00;;;;;;5111843;28;20039;-67
2022/05/03 06:48:50;;;;;;;2.10;1.35;;;13.50;51.90;;;;;;5094626;28;20108;-68
2022/05/03 06:51:15;;;;;;;1.88;1.42;;;13.60;51.80;;;;;;5112666;28;20479;-70
2022/05/03 06:53:41;;;;;;;2.17;1.40;;;13.60;51.70;;;;;;5112527;28;20039;-65
2022/05/03 06:56:07;;;;;;;2.72;1.42;;;13.60;51.60;;;;;;5111019;28;20043;-65
2022/05/03 06:58:33;;;;;;;2.90;2.45;;;13.70;51.50;;;;;;5111518;28;20038;-65
2022/05/03 07:01:10;;;;;;;3.00;1.75;;;13.70;51.50;;;;;;5111290;28;20502;-66
2022/05/03 07:03:37;;;;;;;2.72;1.55;;;13.70;51.40;;;;;;5111227;28;20088;-65
2022/05/03 07:06:04;;;;;;;2.45;1.98;;;13.70;51.30;;;;;;5111125;28;20484;-65
2022/05/03 07:08:30;;;;;;;2.17;1.63;;;13.80;51.30;;;;;;5112414;28;20043;-65
2022/05/03 07:10:56;;;;;;;2.10;1.88;;;13.80;52.00;;;;;;5111269;28;20112;-65
2022/05/03 07:13:25;;;;;;;2.97;2.60;;;13.90;51.50;;;;;;5128228;27;20051;-65
2022/05/03 07:15:55;;;;;;;2.88;2.53;;;13.90;51.30;;;;;;5111287;28;20048;-65
2022/05/03 07:23:54;;;;;;;4.40;2.47;;;13.90;51.40;;;;;;5112039;28;20044;-70
2022/05/03 07:26:21;;;;;;;2.97;2.22;;;13.80;51.40;;;;;;5112231;28;20383;-66
2022/05/03 07:28:48;;;;;;;3.50;2.88;;;13.80;51.40;;;;;;5111314;28;20431;-69
2022/05/03 07:31:15;;;;;;;3.50;2.42;;;13.80;51.40;;;;;;5110960;28;20040;-66
2022/05/03 07:33:41;;;;;;;4.00;2.15;;;13.80;51.50;;;;;;5111216;28;20487;-65
2022/05/03 07:36:07;;;;;;;4.47;2.40;;;13.80;51.60;;;;;;5111215;28;20097;-69
2022/05/03 07:38:34;;;;;;;5.03;2.67;;;13.80;51.60;;;;;;5110947;28;20478;-70
2022/05/03 07:41:00;;;;;;;3.75;2.85;;;13.80;51.60;;;;;;5110953;28;20144;-65
2022/05/03 07:43:26;;;;;;;3.90;2.78;;;13.80;51.60;;;;;;5112247;28;20069;-68
2022/05/03 07:45:51;;;;;;;4.68;3.60;;;13.80;51.70;;;;;;5112122;28;20071;-64
2022/05/03 07:48:17;;;;;;;3.95;2.55;;;13.80;51.80;;;;;;5128103;28;20364;-65
2022/05/03 07:50:44;;;;;;;4.10;3.22;;;13.80;51.80;;;;;;5112110;28;20495;-65
2022/05/03 07:53:10;;;;;;;4.57;3.08;;;13.80;51.80;;;;;;5110912;28;20495;-66
2022/05/03 07:55:36;;;;;;;4.25;2.53;;;13.80;51.80;;;;;;5111038;28;20039;-65
2022/05/03 07:58:02;;;;;;;5.43;3.70;;;13.80;51.90;;;;;;5127724;28;20465;-64
2022/05/03 08:00:27;;;;;;;5.10;3.58;;;13.80;51.90;;;;;;5111971;28;20111;-69
2022/05/03 08:02:53;;;;;;;5.93;3.42;;;13.80;51.90;;;;;;5110733;28;20375;-65
2022/05/03 08:05:19;;;;;;;8.02;4.03;;;13.80;51.90;;;;;;5128081;28;20039;-64
2022/05/03 08:07:44;;;;;;;4.65;3.30;;;13.80;52.00;;;;;;5111762;28;20127;-69
2022/05/03 08:10:10;;;;;;;5.70;3.80;;;13.80;52.00;;;;;;5115710;28;20043;-68
2022/05/03 08:12:37;;;;;;;6.47;4.13;;;13.90;52.10;;;;;;5114663;28;20123;-72
2022/05/03 08:15:04;;;;;;;6.68;4.20;;;13.80;52.10;;;;;;5114626;28;20047;-68
2022/05/03 08:17:30;;;;;;;6.13;4.22;;;13.80;52.20;;;;;;5114311;28;20048;-69
2022/05/03 08:19:56;;;;;;;9.88;5.85;;;13.80;52.10;;;;;;5114315;28;20031;-65
2022/05/03 08:22:25;;;;;;;6.05;4.03;;;13.80;52.20;;;;;;5114138;28;20056;-69
2022/05/03 08:24:51;;;;;;;6.38;4.82;;;13.80;52.30;;;;;;5114504;28;20055;-65
2022/05/03 08:27:17;;;;;;;6.90;5.15;;;13.80;52.30;;;;;;5114469;28;20061;-69
2022/05/03 08:29:43;;;;;;;8.20;5.25;;;13.90;52.40;;;;;;5114404;28;20043;-69
2022/05/03 08:32:09;;;;;;;6.75;4.40;;;13.80;52.40;;;;;;5131441;27;20061;-65
2022/05/03 08:34:35;;;;;;;8.15;5.40;;;13.80;53.20;;;;;;5114146;28;20050;-70
2022/05/03 08:42:33;;;;;;;7.68;5.00;;;13.80;52.70;;;;;;5114977;28;20093;-66
2022/05/03 08:45:01;;;;;;;11.80;6.57;;;13.80;52.80;;;;;;5114963;28;20078;-65
2022/05/03 08:47:28;;;;;;;10.70;6.43;;;13.80;52.90;;;;;;5114759;28;20092;-69
2022/05/03 08:50:13;;;;;;;8.30;5.65;;;13.80;52.90;;;;;;5115040;28;20305;-70
2022/05/03 08:55:20;;;;;;;8.85;6.22;;;13.90;53.00;;;;;;5130743;27;20408;-62
2022/05/03 08:57:46;;;;;;;10.23;6.28;;;13.90;53.10;;;;;;5129241;28;20475;-63
2022/05/03 09:00:13;;;;;;;6.22;5.00;;;13.90;53.10;;;;;;5128905;28;20134;-67
2022/05/03 09:02:48;;;;;;;7.80;5.43;;;13.90;53.00;;;;;;5128915;27;20044;-69
2022/05/03 09:05:15;;;;;;;6.97;5.60;;;13.90;53.00;;;;;;5128734;28;20047;-69
2022/05/03 09:07:59;;;;;;;8.50;6.13;;;13.90;53.00;;;;;;5128825;28;20047;-69
2022/05/03 09:10:28;;;;;;;9.88;6.47;;;13.90;53.20;;;;;;5128928;28;20047;-64
2022/05/03 09:13:11;;;;;;;9.88;5.95;;;13.90;53.00;;;;;;5128578;28;20075;-69
2022/05/03 09:15:37;;;;;;;7.25;5.30;;;13.90;53.20;;;;;;5129951;27;20122;-63
2022/05/03 09:18:02;;;;;;;6.90;4.63;;;13.90;53.30;;;;;;5128603;28;20127;-63
2022/05/03 09:23:50;;;;;;;9.82;5.60;;;13.90;53.50;;;;;;5129674;27;20043;-69
2022/05/03 09:26:22;;;;;;;7.68;4.93;;;13.90;53.50;;;;;;5129505;28;20062;-63
2022/05/03 09:34:23;;;;;;;8.65;5.45;;;13.90;53.50;;;;;;5130217;27;20910;-62
2022/05/03 09:36:52;;;;;;;8.30;4.95;;;13.90;53.70;;;;;;5128964;28;20043;-69
2022/05/03 09:42:09;;;;;;;8.90;6.68;;;13.90;53.60;;;;;;5089404;28;20439;-63
2022/05/03 09:44:36;;;;;;;7.35;4.07;;;13.90;53.60;;;;;;5089471;28;20048;-63
2022/05/03 09:47:08;;;;;;;4.97;3.58;;;13.90;53.70;;;;;;5088250;28;20517;-62
2022/05/03 09:49:35;;;;;;;6.25;4.68;;;13.90;53.60;;;;;;5088062;28;20036;-69
2022/05/03 09:52:03;;;;;;;4.30;3.42;;;13.90;53.50;;;;;;5088203;28;20044;-63
2022/05/03 09:54:28;;;;;;;4.65;3.95;;;14.00;53.60;;;;;;5088763;28;20044;-63
2022/05/03 09:56:55;;;;;;;8.05;4.00;;;14.00;53.50;;;;;;5089814;28;20101;-67
2022/05/03 09:59:21;;;;;;;6.75;3.80;;;14.00;53.50;;;;;;5089254;28;20034;-63
2022/05/03 10:01:47;;;;;;;4.75;3.17;;;14.00;53.50;;;;;;5089107;28;20044;-63
2022/05/03 10:04:14;;;;;;;4.68;3.53;;;14.00;53.50;;;;;;5088297;28;20043;-67
2022/05/03 10:06:40;;;;;;;7.90;3.92;;;13.90;53.60;;;;;;5088982;28;20033;-64
2022/05/03 10:09:08;;;;;;;5.82;3.35;;;13.90;53.70;;;;;;5088920;28;20037;-62
2022/05/03 10:11:36;;;;;;;4.38;3.20;;;13.90;53.70;;;;;;5104491;28;20052;-63
2022/05/03 10:14:02;;;;;;;4.80;3.22;;;13.90;53.80;;;;;;5087896;28;20074;-64
2022/05/03 10:22:05;;;;;;;4.38;3.05;;;13.90;53.80;;;;;;5088485;28;20052;-63
2022/05/03 10:24:51;;;;;;;3.33;2.58;;;13.90;53.70;;;;;;5087690;28;20036;-63
2022/05/03 10:27:22;;;;;;;4.35;2.85;;;13.90;53.80;;;;;;5087338;28;20052;-68
2022/05/03 10:30:24;;;;;;;5.55;2.35;;;14.00;53.90;;;;;;5087561;28;20095;-63
2022/05/03 10:36:42;;;;;;;3.65;2.92;;;14.00;54.00;;;;;;5152737;27;1169413;-69
2022/05/03 10:41:57;;;;;;;3.88;2.47;;;14.00;54.00;;;;;;5130227;27;20403;-69
2022/05/03 10:50:32;;;;;;;3.58;2.50;;;14.00;53.90;;;;;;5151258;27;20180;-64
2022/05/03 10:59:02;;;;;;;4.20;1.85;;;14.00;53.90;;;;;;5130191;27;20299;-63
2022/05/03 11:01:28;;;;;;;4.20;2.58;;;14.00;53.90;;;;;;5128912;28;20082;-69
2022/05/03 11:06:38;;;;;;;5.78;2.70;;;14.00;53.90;;;;;;5150313;27;1237970;-65
2022/05/03 11:22:29;;;;;;;3.95;2.28;;;14.00;53.90;;;;;;5089317;28;20393;-64
2022/05/03 11:24:57;;;;;;;3.45;2.58;;;14.10;54.00;;;;;;5088657;28;20040;-62
2022/05/03 11:27:26;;;;;;;3.42;2.00;;;14.10;54.00;;;;;;5088370;28;20048;-69
2022/05/03 11:30:04;;;;;;;3.13;2.40;;;14.10;54.00;;;;;;5088020;28;20484;-69
2022/05/03 11:35:20;;;;;;;3.97;2.63;;;14.10;53.90;;;;;;5089317;28;20778;-63
2022/05/03 11:37:50;;;;;;;3.95;2.60;;;14.10;54.00;;;;;;5088167;28;20247;-68
2022/05/03 11:40:19;;;;;;;3.45;1.77;;;14.10;54.10;;;;;;5089572;28;20047;-63
2022/05/03 11:42:45;;;;;;;3.10;2.00;;;14.10;53.90;;;;;;5089445;28;20056;-63
2022/05/03 11:45:13;;;;;;;2.88;2.20;;;14.10;53.80;;;;;;5087965;28;20042;-63
2022/05/03 11:47:43;;;;;;;3.28;1.83;;;14.10;53.70;;;;;;5088109;28;20424;-67
2022/05/03 11:55:58;;;;;;;5.78;2.08;;;14.20;53.80;;;;;;5089370;28;20372;-66
2022/05/03 11:56:07;;;;;;;4.43;1.98;;;14.20;53.70;;;;;;5087897;28;20423;-67
2022/05/03 11:58:35;;;;;;;3.80;2.00;;;14.20;53.70;;;;;;5087690;28;20040;-65
2022/05/03 12:01:01;;;;;;;2.28;1.38;;;14.20;53.60;;;;;;5087906;28;20400;-66
2022/05/03 12:03:27;;;;;;;4.20;1.80;;;14.20;53.60;;;;;;5087817;28;20044;-68
2022/05/03 12:05:58;;;;;;;3.10;1.65;;;14.30;53.60;;;;;;5087567;28;20574;-63
2022/05/03 12:08:24;;;;;;;4.28;1.77;;;14.30;53.40;;;;;;5087585;28;20059;-64
2022/05/03 12:10:51;;;;;;;3.90;1.75;;;14.30;53.30;;;;;;5087564;28;20048;-65
2022/05/03 12:13:26;;;;;;;3.55;1.85;;;14.40;53.30;;;;;;5087405;28;20515;-63
2022/05/03 12:18:41;;;;;;;2.95;1.38;;;14.40;53.10;;;;;;5130282;27;20127;-69
2022/05/03 12:23:50;;;;;;;1.60;1.35;;;14.40;53.00;;;;;;5130246;27;20415;-69
2022/05/03 12:28:58;;;;;;;4.15;1.90;;;14.50;52.90;;;;;;5153271;27;1155213;-62
2022/05/03 12:31:34;;;;;;;4.32;1.65;;;14.50;52.70;;;;;;5153079;27;20108;-69
2022/05/03 12:34:00;;;;;;;3.58;1.30;;;14.50;52.60;;;;;;5153028;27;20565;-67
2022/05/03 12:42:01;;;;;;;2.92;1.55;;;14.60;52.60;;;;;;5130235;27;20387;-63
2022/05/03 12:44:28;;;;;;;2.20;1.15;;;14.60;52.30;;;;;;5129287;28;20053;-67
2022/05/03 12:47:04;;;;;;;2.85;1.75;;;14.60;52.30;;;;;;5128804;28;20043;-69
2022/05/03 12:49:30;;;;;;;2.83;1.13;;;14.70;52.30;;;;;;5130159;27;20071;-63
2022/05/03 12:51:56;;;;;;;3.83;1.40;;;14.70;52.20;;;;;;5129062;28;20087;-63
2022/05/03 12:54:24;;;;;;;2.67;1.60;;;14.80;52.10;;;;;;5128765;28;20092;-64
2022/05/03 12:59:35;;;;;;;4.68;1.50;;;14.80;51.80;;;;;;5145576;27;20051;-68
2022/05/03 13:02:01;;;;;;;2.47;1.13;;;14.90;51.80;;;;;;5128546;28;20039;-65
2022/05/03 13:04:29;;;;;;;2.85;1.23;;;14.90;51.80;;;;;;5128658;28;20039;-65
2022/05/03 13:06:58;;;;;;;3.10;1.95;;;14.90;51.70;;;;;;5128807;28;20043;-62
2022/05/03 13:09:24;;;;;;;3.13;1.88;;;14.90;51.70;;;;;;5129803;27;20039;-68
2022/05/03 13:11:50;;;;;;;3.90;1.20;;;14.90;51.60;;;;;;5129583;28;20394;-63
2022/05/03 13:14:16;;;;;;;4.15;1.20;;;14.90;51.60;;;;;;5129817;27;20044;-63
2022/05/03 13:16:42;;;;;;;5.25;1.38;;;14.90;51.50;;;;;;5129803;27;20048;-67
2022/05/03 13:19:08;;;;;;;3.00;1.17;;;14.90;51.50;;;;;;5128510;28;20043;-63
2022/05/03 13:21:39;;;;;;;4.70;1.35;;;14.90;51.50;;;;;;5128178;28;20427;-68
2022/05/03 13:24:06;;;;;;;3.15;1.30;;;14.90;51.40;;;;;;5128463;28;20043;-67
2022/05/03 13:26:33;;;;;;;3.35;1.25;;;15.00;51.50;;;;;;5128450;28;20403;-63
2022/05/03 13:29:04;;;;;;;5.03;1.33;;;14.90;51.40;;;;;;5129444;27;20110;-63
2022/05/03 13:31:29;;;;;;;2.80;1.23;;;14.90;51.40;;;;;;5128334;28;20092;-66
2022/05/03 13:33:56;;;;;;;3.38;1.10;;;14.90;51.40;;;;;;5128115;28;20043;-63
2022/05/03 13:41:53;;;;;;;2.22;0.98;;;14.90;51.20;;;;;;5128052;28;20447;-63
2022/05/03 13:44:18;;;;;;;3.25;1.85;;;14.90;51.20;;;;;;5127928;28;20122;-67
2022/05/03 13:46:44;;;;;;;3.95;1.40;;;15.00;51.20;;;;;;5128034;28;20421;-68
2022/05/03 13:49:13;;;;;;;1.60;0.75;;;15.00;51.20;;;;;;5127938;28;20163;-63
2022/05/03 13:51:40;;;;;;;2.63;0.93;;;15.00;51.30;;;;;;5122624;28;20388;-68
2022/05/03 13:54:05;;;;;;;3.30;1.23;;;15.00;51.20;;;;;;5115204;27;20498;-63
2022/05/03 13:56:37;;;;;;;2.33;0.90;;;15.00;51.20;;;;;;5114253;28;20123;-68
2022/05/03 13:59:04;;;;;;;2.67;0.90;;;15.00;51.20;;;;;;5115356;28;20073;-66
2022/05/03 14:01:33;;;;;;;3.58;1.20;;;15.00;51.10;;;;;;5113863;28;20487;-68
2022/05/03 14:03:59;;;;;;;1.55;0.98;;;15.00;51.10;;;;;;5113940;28;20087;-68
2022/05/03 14:06:25;;;;;;;1.50;0.70;;;15.10;51.70;;;;;;5113755;28;20082;-63
2022/05/03 14:08:51;;;;;;;2.28;0.77;;;15.00;50.90;;;;;;5113941;28;20038;-68
2022/05/03 14:11:17;;;;;;;2.08;0.65;;;15.00;50.90;;;;;;5114122;28;20044;-68
2022/05/03 14:13:43;;;;;;;2.53;1.00;;;15.00;50.80;;;;;;5113750;28;20506;-67
2022/05/03 14:16:09;;;;;;;3.05;0.90;;;15.10;50.90;;;;;;5113470;28;20502;-67
2022/05/03 14:18:35;;;;;;;2.03;0.77;;;15.00;50.80;;;;;;5114861;27;20051;-63
2022/05/03 14:21:00;;;;;;;1.48;0.70;;;15.00;51.50;;;;;;5114512;28;20032;-67
2022/05/03 14:23:26;;;;;;;2.92;0.95;;;15.00;50.80;;;;;;5096375;28;20398;-63
2022/05/03 14:25:52;;;;;;;2.67;0.80;;;15.00;50.80;;;;;;5114602;28;20050;-63
2022/05/03 14:28:19;;;;;;;2.15;1.02;;;15.00;50.80;;;;;;5113387;28;20046;-67
2022/05/03 14:30:46;;;;;;;3.00;0.80;;;15.00;50.80;;;;;;5114607;28;20071;-63
2022/05/03 14:33:13;;;;;;;1.67;0.65;;;15.10;50.80;;;;;;5114847;28;20059;-69
2022/05/03 14:35:40;;;;;;;2.78;1.08;;;15.10;50.90;;;;;;5114358;28;20046;-69
2022/05/03 14:38:06;;;;;;;3.58;0.80;;;15.10;50.80;;;;;;5113433;28;20364;-69
2022/05/03 14:40:32;;;;;;;3.92;1.02;;;15.00;50.80;;;;;;5114195;28;20142;-63
2022/05/03 14:43:00;;;;;;;3.50;0.80;;;15.10;50.90;;;;;;5113359;28;20441;-69
2022/05/03 14:45:26;;;;;;;2.38;0.82;;;15.10;50.80;;;;;;5113187;28;20044;-69
2022/05/03 14:47:52;;;;;;;3.78;0.75;;;15.10;51.50;;;;;;5113202;28;20390;-62
2022/05/03 14:50:18;;;;;;;2.25;0.90;;;15.10;50.80;;;;;;5113058;28;20475;-69
2022/05/03 14:52:44;;;;;;;1.77;0.70;;;15.10;50.70;;;;;;5113178;28;20168;-69
2022/05/03 14:55:10;;;;;;;2.70;1.05;;;15.10;50.80;;;;;;5114104;28;20181;-68
2022/05/03 15:03:07;;;;;;;2.85;0.60;;;15.00;50.70;;;;;;5111937;28;20044;-68
2022/05/03 15:05:37;;;;;;;1.65;0.40;;;15.00;50.80;;;;;;5112678;28;20364;-69
2022/05/03 15:08:05;;;;;;;;;;;15.00;50.70;;;;;;5113314;28;20035;-69
2022/05/03 15:10:31;;;;;;;3.42;0.75;;;15.00;50.70;;;;;;5112741;28;19915;-69
2022/05/03 15:13:00;;;;;;;2.65;0.73;;;15.00;50.80;;;;;;5112799;28;20402;-66
2022/05/03 15:15:26;;;;;;;2.40;1.10;;;15.00;50.80;;;;;;5113730;28;20039;-69
2022/05/03 15:17:52;;;;;;;1.55;0.68;;;15.00;50.70;;;;;;5112330;28;20498;-64
2022/05/03 15:20:22;;;;;;;2.33;0.60;;;15.00;50.70;;;;;;5112290;28;20047;-69
2022/05/03 15:25:33;;;;;;;3.13;0.70;;;15.00;50.70;;;;;;5111999;28;20127;-68
2022/05/03 15:28:00;;;;;;;1.40;0.70;;;15.10;50.80;;;;;;5112144;28;20035;-63
2022/05/03 15:30:27;;;;;;;1.98;0.68;;;15.00;50.70;;;;;;5112157;28;20040;-63
2022/05/03 15:32:53;;;;;;;1.83;0.50;;;15.10;50.70;;;;;;5112038;28;20043;-63
2022/05/03 15:35:20;;;;;;;2.45;0.90;;;15.10;50.70;;;;;;5129304;27;20040;-68
2022/05/03 15:37:46;;;;;;;1.40;0.50;;;15.00;50.60;;;;;;5111964;28;20040;-68
2022/05/03 15:40:13;;;;;;;3.65;0.73;;;15.10;50.70;;;;;;5111655;28;20075;-63
2022/05/03 15:42:39;;;;;;;2.70;0.50;;;15.10;50.60;;;;;;5111752;28;20550;-63
2022/05/03 15:45:06;;;;;;;2.03;0.50;;;15.10;50.60;;;;;;5129215;27;20035;-65
2022/05/03 15:47:34;;;;;;;2.03;0.93;;;15.10;50.70;;;;;;5111694;28;20048;-63
2022/05/03 15:50:03;;;;;;;1.15;0.60;;;15.10;50.70;;;;;;5111792;28;20039;-63
2022/05/03 15:52:30;;;;;;;2.78;0.65;;;15.10;51.40;;;;;;5111846;28;20110;-68
2022/05/03 15:54:56;;;;;;;3.20;0.70;;;15.10;50.70;;;;;;5111668;28;20738;-63
2022/05/03 15:57:23;;;;;;;2.20;0.70;;;15.10;50.70;;;;;;5128922;27;20432;-68
2022/05/03 15:59:49;;;;;;;2.17;0.73;;;15.10;50.70;;;;;;5111437;28;20054;-63
2022/05/03 16:02:15;;;;;;;1.80;0.85;;;15.00;50.60;;;;;;5112717;28;20112;-65